Time;durP1;ratioP1;P1;durP2;ratioP2;P2;SDS_P1;SDS_P2;PMS_P1;PMS_P2;Temp;Humidity;BMP_temperature;BMP_pressure;BME280_temperature;BME280_humidity;BME280_pressure;Samples;Min_cycle;Max_cycle;Signal;HPM_P1;HPM_P2
2022/06/08 00:02:19;;;;;;;4.00;1.10;;;;;;;;;;4966401;28;20218;-85
2022/06/08 00:05:23;;;;;;;1.80;0.87;;;;;;;;;;4966402;28;20222;-85
2022/06/08 00:08:26;;;;;;;1.73;0.80;;;;;;;;;;4977126;28;20186;-85
2022/06/08 00:11:31;;;;;;;1.00;0.90;;;;;;;;;;4977205;28;20222;-85
2022/06/08 00:14:35;;;;;;;1.33;0.60;;;;;;;;;;4983711;28;20186;-85
2022/06/08 00:17:39;;;;;;;0.80;0.80;;;;;;;;;;4984952;28;20202;-85
2022/06/08 00:20:44;;;;;;;0.97;0.80;;;;;;;;;;4996321;28;20178;-85
2022/06/08 00:23:48;;;;;;;2.07;0.80;;;;;;;;;;4976990;28;20546;-85
2022/06/08 00:26:52;;;;;;;0.90;0.70;;;;;;;;;;4980757;28;20194;-85
2022/06/08 00:29:57;;;;;;;3.63;0.80;;;;;;;;;;4984468;28;20186;-85
2022/06/08 00:33:00;;;;;;;2.03;0.70;;;;;;;;;;4982328;28;20565;-85
2022/06/08 00:36:05;;;;;;;0.83;0.60;;;;;;;;;;4954960;28;20187;-85
2022/06/08 00:39:09;;;;;;;1.67;0.70;;;;;;;;;;4977976;28;20187;-85
2022/06/08 00:42:15;;;;;;;1.90;0.80;;;;;;;;;;5005537;23;20233;-79
2022/06/08 00:45:22;;;;;;;2.00;0.60;;;;;;;;;;5007142;28;20378;-77
2022/06/08 00:48:30;;;;;;;3.83;0.90;;;;;;;;;;4988780;28;20190;-77
2022/06/08 00:51:34;;;;;;;1.60;0.73;;;;;;;;;;4987978;28;20569;-77
2022/06/08 00:54:42;;;;;;;1.47;0.70;;;;;;;;;;5003050;28;20513;-77
2022/06/08 00:57:51;;;;;;;1.33;0.93;;;;;;;;;;4994928;28;20186;-78
2022/06/08 01:00:58;;;;;;;1.00;0.60;;;;;;;;;;4984758;28;20566;-79
2022/06/08 01:04:12;;;;;;;4.10;0.70;;;;;;;;;;4983869;28;20210;-78
2022/06/08 01:07:20;;;;;;;1.90;0.70;;;;;;;;;;4995946;28;20202;-78
2022/06/08 01:10:37;;;;;;;0.90;0.70;;;;;;;;;;5019670;28;20178;-78
2022/06/08 01:13:42;;;;;;;2.20;0.70;;;;;;;;;;4983601;28;20182;-78
2022/06/08 01:17:06;;;;;;;1.17;0.90;;;;;;;;;;4995725;28;20202;-78
2022/06/08 01:20:12;;;;;;;0.70;0.70;;;;;;;;;;4988865;28;20179;-78
2022/06/08 01:23:17;;;;;;;1.67;0.90;;;;;;;;;;5024495;28;20644;-78
2022/06/08 01:26:26;;;;;;;3.33;0.60;;;;;;;;;;4994569;28;20190;-78
2022/06/08 01:29:37;;;;;;;1.47;0.70;;;;;;;;;;4993493;28;20178;-78
2022/06/08 01:33:25;;;;;;;1.03;0.80;;;;;;;;;;5003283;28;20225;-78
2022/06/08 01:36:56;;;;;;;2.00;0.80;;;;;;;;;;5025542;28;20178;-78
2022/06/08 01:40:27;;;;;;;2.30;0.93;;;;;;;;;;4973231;28;20194;-78
2022/06/08 01:43:59;;;;;;;1.13;0.80;;;;;;;;;;5013390;28;20201;-79
2022/06/08 01:47:21;;;;;;;5.33;0.77;;;;;;;;;;5013930;28;20181;-78
2022/06/08 01:50:34;;;;;;;6.73;0.90;;;;;;;;;;5024846;28;20182;-78
2022/06/08 01:54:02;;;;;;;2.57;0.73;;;;;;;;;;4993183;28;20198;-78
2022/06/08 01:57:47;;;;;;;3.23;1.00;;;;;;;;;;4990641;28;20551;-78
2022/06/08 02:01:03;;;;;;;2.80;0.80;;;;;;;;;;5012518;28;20218;-78
2022/06/08 02:04:28;;;;;;;1.10;0.70;;;;;;;;;;4993060;28;20218;-78
2022/06/08 02:07:43;;;;;;;0.83;0.73;;;;;;;;;;4996778;28;20648;-78
2022/06/08 02:11:03;;;;;;;2.90;0.90;;;;;;;;;;4981927;28;20190;-78
2022/06/08 02:14:20;;;;;;;1.00;0.90;;;;;;;;;;4992256;28;20182;-79
2022/06/08 02:17:37;;;;;;;2.67;1.07;;;;;;;;;;4992450;28;20194;-79
2022/06/08 02:20:48;;;;;;;3.70;1.00;;;;;;;;;;5006715;28;20198;-78
2022/06/08 02:23:59;;;;;;;0.93;0.90;;;;;;;;;;5000976;28;20194;-78
2022/06/08 02:27:15;;;;;;;1.60;0.87;;;;;;;;;;5017014;28;20537;-78
2022/06/08 02:30:24;;;;;;;2.17;0.80;;;;;;;;;;5023434;28;20182;-79
2022/06/08 02:37:06;;;;;;;2.23;1.00;;;;;;;;;;5003362;28;20617;-79
2022/06/08 02:40:26;;;;;;;3.63;0.90;;;;;;;;;;4992163;28;20202;-79
2022/06/08 02:43:39;;;;;;;0.93;0.80;;;;;;;;;;4981309;28;20545;-78
2022/06/08 02:47:10;;;;;;;0.87;0.80;;;;;;;;;;4981816;28;20186;-78
2022/06/08 02:50:23;;;;;;;3.20;1.20;;;;;;;;;;4992237;28;20186;-79
2022/06/08 02:53:28;;;;;;;2.23;0.93;;;;;;;;;;5002813;28;20193;-78
2022/06/08 02:56:46;;;;;;;2.03;1.20;;;;;;;;;;4999501;28;20187;-78
2022/06/08 03:00:10;;;;;;;2.33;1.00;;;;;;;;;;5010009;28;20182;-78
2022/06/08 03:03:19;;;;;;;1.47;0.70;;;;;;;;;;5003828;28;20186;-78
2022/06/08 03:06:39;;;;;;;2.00;1.07;;;;;;;;;;4994969;28;20214;-78
2022/06/08 03:09:47;;;;;;;2.13;0.93;;;;;;;;;;5001579;28;20194;-78
2022/06/08 03:13:00;;;;;;;4.10;1.27;;;;;;;;;;4992939;28;20221;-78
2022/06/08 03:16:07;;;;;;;2.37;0.90;;;;;;;;;;4995836;28;20194;-78
2022/06/08 03:19:14;;;;;;;1.10;0.90;;;;;;;;;;5012715;28;20193;-79
2022/06/08 03:22:19;;;;;;;3.43;1.53;;;;;;;;;;4995775;28;20222;-78
2022/06/08 03:25:24;;;;;;;2.70;0.87;;;;;;;;;;5008661;28;20209;-78
2022/06/08 03:28:31;;;;;;;4.17;1.13;;;;;;;;;;5016224;28;20201;-78
2022/06/08 03:31:35;;;;;;;5.73;1.20;;;;;;;;;;4987292;28;20222;-78
2022/06/08 03:34:42;;;;;;;1.63;1.10;;;;;;;;;;4990037;28;20181;-78
2022/06/08 03:37:47;;;;;;;1.53;1.33;;;;;;;;;;5004952;28;20649;-78
2022/06/08 03:40:54;;;;;;;1.50;1.40;;;;;;;;;;5002714;28;20213;-78
2022/06/08 03:43:59;;;;;;;1.27;1.00;;;;;;;;;;4998455;28;20205;-78
2022/06/08 03:47:15;;;;;;;2.00;1.30;;;;;;;;;;5014332;28;20181;-78
2022/06/08 03:50:25;;;;;;;1.30;1.07;;;;;;;;;;5017914;28;20198;-78
2022/06/08 03:53:35;;;;;;;3.87;1.27;;;;;;;;;;5004386;28;20193;-78
2022/06/08 03:56:41;;;;;;;5.70;1.20;;;;;;;;;;5025838;28;20190;-78
2022/06/08 03:59:48;;;;;;;1.60;1.07;;;;;;;;;;5022233;28;20186;-78
2022/06/08 04:02:53;;;;;;;3.67;1.40;;;;;;;;;;4994968;28;20214;-78
2022/06/08 04:06:04;;;;;;;2.83;1.20;;;;;;;;;;5007090;28;20214;-78
2022/06/08 04:09:12;;;;;;;2.67;1.40;;;;;;;;;;5010500;28;20181;-78
2022/06/08 04:12:17;;;;;;;5.43;1.20;;;;;;;;;;4996721;28;20684;-78
2022/06/08 04:18:46;;;;;;;3.43;1.93;;;;;;;;;;4992929;28;20174;-78
2022/06/08 04:21:51;;;;;;;1.30;1.20;;;;;;;;;;5003568;28;20234;-78
2022/06/08 04:24:59;;;;;;;2.63;1.27;;;;;;;;;;4992175;28;20214;-78
2022/06/08 04:28:05;;;;;;;1.83;1.57;;;;;;;;;;5009445;28;20202;-78
2022/06/08 04:31:09;;;;;;;4.10;1.60;;;;;;;;;;4994698;28;20221;-78
2022/06/08 04:34:17;;;;;;;4.33;1.43;;;;;;;;;;5003475;28;20198;-78
2022/06/08 04:37:21;;;;;;;1.60;1.40;;;;;;;;;;5011094;28;20174;-78
2022/06/08 04:40:30;;;;;;;1.97;1.53;;;;;;;;;;4999108;28;20194;-78
2022/06/08 04:43:36;;;;;;;4.23;1.43;;;;;;;;;;5002033;28;20210;-78
2022/06/08 04:46:41;;;;;;;3.50;1.33;;;;;;;;;;4997131;28;20221;-80
2022/06/08 04:49:51;;;;;;;3.70;1.60;;;;;;;;;;4998023;28;20185;-79
2022/06/08 04:52:58;;;;;;;3.70;1.73;;;;;;;;;;5022607;28;20221;-79
2022/06/08 04:56:03;;;;;;;2.80;1.70;;;;;;;;;;5004183;28;20182;-78
2022/06/08 04:59:09;;;;;;;2.63;1.37;;;;;;;;;;4994351;28;20185;-78
2022/06/08 05:02:42;;;;;;;5.37;2.00;;;;;;;;;;5011408;28;20561;-78
2022/06/08 05:05:47;;;;;;;3.93;1.87;;;;;;;;;;5006485;28;20217;-78
2022/06/08 05:08:59;;;;;;;4.20;1.90;;;;;;;;;;5004715;28;20194;-78
2022/06/08 05:12:06;;;;;;;2.50;1.90;;;;;;;;;;5023409;28;20221;-78
2022/06/08 05:15:15;;;;;;;1.83;1.70;;;;;;;;;;5011951;28;20178;-79
2022/06/08 05:18:20;;;;;;;4.20;1.93;;;;;;;;;;4996773;28;20198;-78
2022/06/08 05:21:26;;;;;;;2.27;1.70;;;;;;;;;;4982383;28;20218;-78
2022/06/08 05:24:31;;;;;;;1.83;1.50;;;;;;;;;;5003585;28;20189;-79
2022/06/08 05:27:36;;;;;;;4.63;1.90;;;;;;;;;;5022411;28;20181;-78
2022/06/08 05:30:43;;;;;;;3.27;1.90;;;;;;;;;;4986154;28;20194;-77
2022/06/08 05:33:47;;;;;;;1.80;1.47;;;;;;;;;;4991682;28;20178;-78
2022/06/08 05:36:55;;;;;;;2.30;1.93;;;;;;;;;;4991227;28;20183;-78
2022/06/08 05:40:04;;;;;;;3.80;2.27;;;;;;;;;;5007548;28;20190;-78
2022/06/08 05:43:12;;;;;;;6.87;1.83;;;;;;;;;;5006174;28;20198;-78
2022/06/08 05:46:22;;;;;;;3.17;1.80;;;;;;;;;;5002176;28;20549;-78
2022/06/08 05:49:33;;;;;;;3.67;1.70;;;;;;;;;;5005488;28;20629;-78
2022/06/08 05:52:38;;;;;;;4.33;1.90;;;;;;;;;;4993509;28;20209;-78
2022/06/08 05:55:44;;;;;;;3.00;1.50;;;;;;;;;;5010703;28;20193;-78
2022/06/08 05:58:48;;;;;;;1.60;1.50;;;;;;;;;;5005167;28;20193;-78
2022/06/08 06:01:54;;;;;;;3.67;1.93;;;;;;;;;;4991068;28;20225;-78
2022/06/08 06:04:58;;;;;;;2.47;1.43;;;;;;;;;;4992539;28;20178;-78
2022/06/08 06:08:02;;;;;;;1.80;1.30;;;;;;;;;;4993585;28;20178;-79
2022/06/08 06:11:13;;;;;;;3.97;1.40;;;;;;;;;;4997154;28;20222;-79
2022/06/08 06:14:20;;;;;;;3.30;1.53;;;;;;;;;;4995482;28;20182;-79
2022/06/08 06:17:30;;;;;;;5.87;1.60;;;;;;;;;;4992413;28;20171;-78
2022/06/08 06:20:37;;;;;;;1.83;1.50;;;;;;;;;;5004115;28;20190;-79
2022/06/08 06:23:54;;;;;;;3.10;1.47;;;;;;;;;;5006636;28;20190;-79
2022/06/08 06:27:17;;;;;;;1.67;1.30;;;;;;;;;;5026050;28;20676;-78
2022/06/08 06:30:51;;;;;;;1.93;1.50;;;;;;;;;;5014725;28;20205;-79
2022/06/08 06:34:13;;;;;;;4.20;1.20;;;;;;;;;;5018921;28;20198;-79
2022/06/08 06:37:17;;;;;;;2.87;1.73;;;;;;;;;;5011061;28;20640;-79
2022/06/08 06:40:23;;;;;;;3.23;1.50;;;;;;;;;;5007509;28;20191;-81
2022/06/08 06:43:28;;;;;;;4.30;1.50;;;;;;;;;;5032659;23;20229;-87
2022/06/08 06:46:51;;;;;;;1.50;1.40;;;;;;;;;;4992617;28;20213;-86
2022/06/08 06:50:13;;;;;;;3.63;1.60;;;;;;;;;;5003866;28;20560;-86
2022/06/08 06:53:17;;;;;;;2.67;1.17;;;;;;;;;;4991098;28;20221;-86
2022/06/08 06:56:28;;;;;;;1.83;1.30;;;;;;;;;;4995000;28;20186;-86
2022/06/08 06:59:38;;;;;;;2.80;1.40;;;;;;;;;;4975404;28;20526;-87
2022/06/08 07:02:43;;;;;;;4.50;1.40;;;;;;;;;;4974829;28;20182;-86
2022/06/08 07:05:48;;;;;;;3.03;1.50;;;;;;;;;;4985797;28;20202;-86
2022/06/08 07:08:52;;;;;;;1.57;1.40;;;;;;;;;;4979267;28;20182;-86
2022/06/08 07:11:58;;;;;;;4.10;1.53;;;;;;;;;;4985918;28;20526;-87
2022/06/08 07:15:07;;;;;;;4.27;1.50;;;;;;;;;;4974937;28;20217;-86
2022/06/08 07:18:15;;;;;;;3.00;1.50;;;;;;;;;;4982138;28;20197;-86
2022/06/08 07:21:20;;;;;;;5.63;1.57;;;;;;;;;;4974143;28;20201;-87
2022/06/08 07:24:30;;;;;;;2.60;1.20;;;;;;;;;;4983556;28;20218;-86
2022/06/08 07:27:36;;;;;;;2.77;1.50;;;;;;;;;;4987885;28;20202;-86
2022/06/08 07:30:39;;;;;;;2.73;1.30;;;;;;;;;;5016109;28;20181;-87
2022/06/08 07:33:44;;;;;;;1.30;1.03;;;;;;;;;;4988781;28;20700;-86
2022/06/08 07:36:48;;;;;;;3.17;1.23;;;;;;;;;;4989751;28;20190;-86
2022/06/08 07:39:52;;;;;;;3.07;1.20;;;;;;;;;;4985196;28;20186;-87
2022/06/08 07:42:57;;;;;;;7.33;1.40;;;;;;;;;;4984972;28;20187;-87
2022/06/08 07:46:01;;;;;;;2.13;1.47;;;;;;;;;;4988667;28;20222;-87
2022/06/08 07:52:28;;;;;;;4.40;1.40;;;;;;;;;;4990402;28;20542;-87
2022/06/08 07:55:33;;;;;;;2.37;1.40;;;;;;;;;;4983942;28;20190;-87
2022/06/08 07:58:37;;;;;;;2.63;0.93;;;;;;;;;;4993462;28;20183;-87
2022/06/08 08:01:41;;;;;;;3.40;1.40;;;;;;;;;;4992601;28;20182;-87
2022/06/08 08:04:46;;;;;;;1.60;1.13;;;;;;;;;;5003034;28;20214;-86
2022/06/08 08:07:53;;;;;;;3.13;1.00;;;;;;;;;;4989604;28;20220;-87
2022/06/08 08:10:57;;;;;;;2.97;1.27;;;;;;;;;;4986085;28;20192;-87
2022/06/08 08:14:01;;;;;;;5.23;1.10;;;;;;;;;;4993064;28;20224;-87
2022/06/08 08:17:05;;;;;;;5.23;1.60;;;;;;;;;;4973632;28;20176;-85
2022/06/08 08:20:13;;;;;;;1.27;0.90;;;;;;;;;;4998271;28;20187;-86
2022/06/08 08:23:18;;;;;;;4.53;1.10;;;;;;;;;;4973354;28;20226;-86
2022/06/08 08:26:22;;;;;;;2.00;1.10;;;;;;;;;;4973154;28;20230;-86
2022/06/08 08:29:26;;;;;;;2.88;1.10;;;;;;;;;;4974675;28;20191;-86
2022/06/08 08:32:30;;;;;;;4.18;1.20;;;;;;;;;;4990482;28;20199;-88
2022/06/08 08:35:35;;;;;;;1.92;0.90;;;;;;;;;;5002739;28;20656;-87
2022/06/08 08:38:39;;;;;;;1.90;1.10;;;;;;;;;;4992470;28;20179;-87
2022/06/08 08:45:12;;;;;;;2.25;1.00;;;;;;;;;;4991791;28;20223;-87
2022/06/08 08:48:37;;;;;;;7.38;1.30;;;;;;;;;;4994445;28;20188;-89
2022/06/08 08:51:45;;;;;;;2.47;1.00;;;;;;;;;;5013448;28;20195;-87
2022/06/08 08:54:57;;;;;;;4.45;1.10;;;;;;;;;;4992534;28;20227;-87
2022/06/08 08:58:11;;;;;;;2.00;0.90;;;;;;;;;;4993257;28;20198;-87
2022/06/08 09:01:29;;;;;;;1.65;1.02;;;;;;;;;;4983998;28;20193;-87
2022/06/08 09:04:36;;;;;;;5.55;1.17;;;;;;;;;;5002302;28;20219;-87
2022/06/08 09:07:42;;;;;;;1.58;0.80;;;;;;;;;;5013344;28;20212;-87
2022/06/08 09:10:46;;;;;;;3.08;1.05;;;;;;;;;;4972490;28;20212;-87
2022/06/08 09:14:04;;;;;;;1.77;0.85;;;;;;;;;;4983325;28;20687;-88
2022/06/08 09:17:15;;;;;;;4.53;1.20;;;;;;;;;;4973238;28;20189;-87
2022/06/08 09:20:28;;;;;;;4.55;0.80;;;;;;;;;;4972015;28;20176;-87
2022/06/08 09:23:41;;;;;;;3.05;1.33;;;;;;;;;;4972660;28;20224;-87
2022/06/08 09:26:47;;;;;;;3.85;1.27;;;;;;;;;;4999456;28;20225;-87
2022/06/08 09:30:00;;;;;;;5.28;2.97;;;;;;;;;;4986010;28;20198;-87
2022/06/08 09:33:22;;;;;;;1.55;1.10;;;;;;;;;;4988069;28;20198;-88
2022/06/08 09:36:27;;;;;;;3.92;1.05;;;;;;;;;;4991381;28;20184;-87
2022/06/08 09:39:33;;;;;;;2.20;1.15;;;;;;;;;;5002338;28;20187;-88
2022/06/08 09:43:23;;;;;;;1.52;1.02;;;;;;;;;;4991377;28;20201;-87
2022/06/08 09:54:00;;;;;;;3.83;1.05;;;;;;;;;;5013667;28;20699;-86
2022/06/08 09:57:40;;;;;;;3.28;1.17;;;;;;;;;;4978598;28;20200;-87
2022/06/08 10:01:09;;;;;;;2.53;1.02;;;;;;;;;;4974486;28;20199;-87
2022/06/08 10:04:20;;;;;;;2.05;1.05;;;;;;;;;;4993597;28;20224;-86
2022/06/08 10:07:47;;;;;;;4.10;0.88;;;;;;;;;;4971751;28;20671;-88
2022/06/08 10:11:36;;;;;;;1.95;1.30;;;;;;;;;;4971586;28;20188;-89
2022/06/08 10:14:50;;;;;;;5.43;1.40;;;;;;;;;;4971439;28;20224;-89
2022/06/08 10:18:01;;;;;;;3.90;1.80;;;;;;;;;;4982811;28;20182;-88
2022/06/08 10:21:13;;;;;;;2.80;1.00;;;;;;;;;;4970998;28;20192;-88
2022/06/08 10:24:24;;;;;;;3.15;0.90;;;;;;;;;;4981969;28;20221;-88
2022/06/08 10:27:36;;;;;;;3.80;1.00;;;;;;;;;;4971149;28;20213;-89
2022/06/08 10:30:51;;;;;;;3.47;1.03;;;;;;;;;;4983577;28;20626;-88
2022/06/08 10:34:18;;;;;;;4.10;1.30;;;;;;;;;;4988724;28;20224;-88
2022/06/08 10:37:38;;;;;;;2.47;0.80;;;;;;;;;;4977830;28;20190;-88
2022/06/08 10:40:54;;;;;;;2.65;1.02;;;;;;;;;;4977774;28;20191;-88
2022/06/08 10:44:00;;;;;;;2.17;1.08;;;;;;;;;;4988223;28;20228;-88
2022/06/08 10:47:13;;;;;;;2.97;1.17;;;;;;;;;;4979270;28;20218;-88
2022/06/08 10:50:27;;;;;;;4.18;1.23;;;;;;;;;;4987978;28;20197;-89
2022/06/08 10:57:31;;;;;;;4.43;1.98;;;;;;;;;;4990446;28;20635;-88
2022/06/08 11:00:47;;;;;;;6.90;1.80;;;;;;;;;;5008228;28;20198;-87
2022/06/08 11:03:54;;;;;;;3.70;0.85;;;;;;;;;;4993088;28;20583;-88
2022/06/08 11:07:05;;;;;;;3.20;1.00;;;;;;;;;;4999441;28;20211;-87
2022/06/08 11:10:12;;;;;;;4.73;1.10;;;;;;;;;;4994496;28;20187;-88
2022/06/08 11:13:22;;;;;;;2.07;0.90;;;;;;;;;;5008252;28;20224;-87
2022/06/08 11:16:31;;;;;;;3.93;1.00;;;;;;;;;;4994441;28;20200;-87
2022/06/08 11:19:36;;;;;;;1.60;1.20;;;;;;;;;;5000167;28;20195;-87
2022/06/08 11:22:51;;;;;;;2.83;1.23;;;;;;;;;;4997469;28;20191;-87
2022/06/08 11:26:14;;;;;;;1.97;1.00;;;;;;;;;;4996565;28;20193;-85
2022/06/08 11:29:18;;;;;;;2.47;0.83;;;;;;;;;;5005753;28;20179;-88
2022/06/08 11:32:34;;;;;;;3.03;0.93;;;;;;;;;;4996739;28;20185;-88
2022/06/08 11:35:56;;;;;;;4.10;0.80;;;;;;;;;;4992370;28;20202;-88
2022/06/08 11:39:16;;;;;;;3.85;0.75;;;;;;;;;;4988498;28;20180;-89
2022/06/08 11:42:31;;;;;;;2.50;0.73;;;;;;;;;;4980971;28;20203;-88
2022/06/08 11:45:42;;;;;;;2.10;0.77;;;;;;;;;;4985244;28;20204;-88
2022/06/08 11:48:49;;;;;;;4.50;0.82;;;;;;;;;;4985649;28;20212;-87
2022/06/08 11:51:53;;;;;;;2.72;1.35;;;;;;;;;;4990139;28;20201;-88
2022/06/08 11:55:12;;;;;;;4.45;1.13;;;;;;;;;;4975277;28;20221;-88
2022/06/08 11:58:23;;;;;;;3.40;1.00;;;;;;;;;;4975369;28;20532;-86
2022/06/08 12:01:52;;;;;;;4.00;1.10;;;;;;;;;;4988302;28;20185;-87
2022/06/08 12:04:57;;;;;;;2.80;1.00;;;;;;;;;;4976394;28;20217;-88
2022/06/08 12:08:13;;;;;;;1.88;0.80;;;;;;;;;;4986398;28;20212;-87
2022/06/08 12:11:20;;;;;;;1.10;0.75;;;;;;;;;;4988965;28;20186;-87
2022/06/08 12:14:31;;;;;;;3.97;1.05;;;;;;;;;;4988541;28;20556;-87
2022/06/08 12:17:38;;;;;;;4.68;0.93;;;;;;;;;;4999187;28;20185;-87
2022/06/08 12:20:43;;;;;;;2.92;0.70;;;;;;;;;;4978492;28;20356;-87
2022/06/08 12:24:28;;;;;;;3.38;1.00;;;;;;;;;;5007859;28;20213;-86
2022/06/08 12:27:43;;;;;;;1.58;0.80;;;;;;;;;;4997499;28;20216;-87
2022/06/08 12:30:48;;;;;;;1.98;0.80;;;;;;;;;;4982159;28;20198;-87
2022/06/08 12:33:52;;;;;;;2.35;0.70;;;;;;;;;;4996577;28;20222;-87
2022/06/08 12:37:28;;;;;;;2.15;0.80;;;;;;;;;;4988294;28;20183;-88
2022/06/08 12:40:34;;;;;;;2.20;0.80;;;;;;;;;;4996220;28;20195;-85
2022/06/08 12:43:50;;;;;;;1.58;0.88;;;;;;;;;;5016778;23;20233;-77
2022/06/08 12:47:00;;;;;;;2.67;0.85;;;;;;;;;;4975839;28;20213;-79
2022/06/08 12:50:13;;;;;;;3.22;0.90;;;;;;;;;;4978481;28;20202;-79
2022/06/08 12:53:18;;;;;;;2.88;0.77;;;;;;;;;;4947754;29;20193;-77
2022/06/08 12:56:22;;;;;;;3.63;0.77;;;;;;;;;;4970803;28;20196;-78
2022/06/08 12:59:26;;;;;;;2.05;0.80;;;;;;;;;;4948783;29;20187;-78
2022/06/08 13:02:34;;;;;;;2.50;0.85;;;;;;;;;;4959036;29;20695;-77
2022/06/08 13:05:38;;;;;;;2.20;0.85;;;;;;;;;;4958933;29;20639;-77
2022/06/08 13:08:43;;;;;;;2.28;0.90;;;;;;;;;;4962007;29;20203;-79
2022/06/08 13:11:54;;;;;;;3.03;1.10;;;;;;;;;;4955413;29;20228;-78
2022/06/08 13:14:59;;;;;;;3.05;0.90;;;;;;;;;;4960862;29;20180;-79
2022/06/08 13:18:05;;;;;;;4.10;1.08;;;;;;;;;;4960421;29;20200;-79
2022/06/08 13:21:11;;;;;;;2.20;0.90;;;;;;;;;;4957805;29;20227;-78
2022/06/08 13:24:17;;;;;;;6.43;0.90;;;;;;;;;;4949290;29;20187;-79
2022/06/08 13:27:21;;;;;;;1.95;0.80;;;;;;;;;;4960567;29;20209;-79
2022/06/08 13:30:30;;;;;;;1.88;0.93;;;;;;;;;;4960123;29;20196;-79
2022/06/08 13:36:59;;;;;;;2.25;0.90;;;;;;;;;;4965702;28;20188;-79
2022/06/08 13:40:14;;;;;;;2.72;0.98;;;;;;;;;;4959381;29;20192;-79
2022/06/08 13:43:18;;;;;;;1.63;0.80;;;;;;;;;;4958501;29;20196;-79
2022/06/08 13:46:27;;;;;;;1.27;0.80;;;;;;;;;;4960285;29;20638;-79
2022/06/08 13:49:34;;;;;;;1.80;1.10;;;;;;;;;;4960166;29;20207;-79
2022/06/08 13:52:41;;;;;;;0.85;0.75;;;;;;;;;;4960580;29;20219;-79
2022/06/08 13:55:49;;;;;;;1.95;1.08;;;;;;;;;;4957964;29;20651;-77
2022/06/08 13:58:54;;;;;;;5.75;0.88;;;;;;;;;;4940573;29;20185;-78
2022/06/08 14:01:59;;;;;;;2.45;0.70;;;;;;;;;;4942066;29;20223;-78
2022/06/08 14:05:04;;;;;;;2.65;0.82;;;;;;;;;;4939103;29;20638;-78
2022/06/08 14:15:00;;;;;;;4.82;0.80;;;;;;;;;;4938070;29;20620;-78
2022/06/08 14:18:04;;;;;;;2.15;0.82;;;;;;;;;;4948853;29;20563;-78
2022/06/08 14:21:10;;;;;;;0.90;0.70;;;;;;;;;;4948955;29;20681;-78
2022/06/08 14:24:22;;;;;;;2.08;1.02;;;;;;;;;;4927394;29;20189;-78
2022/06/08 14:27:27;;;;;;;6.00;0.88;;;;;;;;;;4948693;29;20182;-80
2022/06/08 14:30:32;;;;;;;3.65;0.90;;;;;;;;;;4948634;29;20189;-77
2022/06/08 14:33:36;;;;;;;3.00;0.90;;;;;;;;;;4939018;29;20200;-80
2022/06/08 14:36:40;;;;;;;2.78;0.90;;;;;;;;;;4947477;29;20201;-80
2022/06/08 14:39:45;;;;;;;5.75;1.15;;;;;;;;;;4937740;29;20200;-80
2022/06/08 14:42:50;;;;;;;3.20;0.88;;;;;;;;;;4950784;28;20696;-79
2022/06/08 14:45:56;;;;;;;1.27;0.80;;;;;;;;;;4929460;29;20205;-80
2022/06/08 14:49:00;;;;;;;3.08;0.77;;;;;;;;;;4928909;29;20210;-80
2022/06/08 14:52:07;;;;;;;4.82;1.05;;;;;;;;;;4951223;28;20226;-80
2022/06/08 14:58:38;;;;;;;1.80;0.80;;;;;;;;;;4939904;29;20181;-80
2022/06/08 15:01:42;;;;;;;0.90;0.70;;;;;;;;;;4928428;29;20226;-80
2022/06/08 15:04:47;;;;;;;1.15;0.70;;;;;;;;;;4928597;29;20189;-79
2022/06/08 15:07:52;;;;;;;4.18;1.00;;;;;;;;;;4939373;29;20186;-80
2022/06/08 15:14:35;;;;;;;4.90;0.90;;;;;;;;;;4949500;29;20621;-80
2022/06/08 15:17:41;;;;;;;2.13;0.80;;;;;;;;;;4947882;28;20198;-80
2022/06/08 15:20:45;;;;;;;1.42;0.68;;;;;;;;;;4954168;29;20182;-80
2022/06/08 15:23:49;;;;;;;4.70;1.08;;;;;;;;;;4961622;29;20181;-80
2022/06/08 15:26:56;;;;;;;2.15;0.88;;;;;;;;;;4972044;28;20195;-80
2022/06/08 15:30:01;;;;;;;3.03;1.20;;;;;;;;;;4960013;29;20204;-80
2022/06/08 15:33:05;;;;;;;1.83;0.88;;;;;;;;;;4960946;29;20202;-80
2022/06/08 15:36:10;;;;;;;1.25;0.73;;;;;;;;;;4951958;29;20188;-80
2022/06/08 15:39:18;;;;;;;4.47;0.88;;;;;;;;;;4958717;29;20180;-80
2022/06/08 15:42:24;;;;;;;1.40;0.82;;;;;;;;;;4958147;29;20221;-80
2022/06/08 15:45:29;;;;;;;2.83;1.23;;;;;;;;;;4939280;29;20212;-80
2022/06/08 15:48:33;;;;;;;4.72;0.82;;;;;;;;;;4957059;29;20218;-80
2022/06/08 15:51:38;;;;;;;1.70;1.05;;;;;;;;;;4964053;28;20230;-80
2022/06/08 15:55:18;;;;;;;2.50;0.85;;;;;;;;;;4944541;29;20249;-79
2022/06/08 15:58:25;;;;;;;5.05;0.80;;;;;;;;;;4950130;28;20643;-80
2022/06/08 16:01:32;;;;;;;1.65;0.60;;;;;;;;;;4972805;28;20223;-80
2022/06/08 16:04:37;;;;;;;5.47;1.42;;;;;;;;;;4961901;29;20187;-79
2022/06/08 16:07:44;;;;;;;4.60;0.90;;;;;;;;;;4951315;29;20210;-79
2022/06/08 16:10:49;;;;;;;4.97;1.03;;;;;;;;;;4969135;28;20666;-79
2022/06/08 16:13:53;;;;;;;3.77;1.10;;;;;;;;;;4929760;29;20214;-80
2022/06/08 16:16:58;;;;;;;3.20;0.70;;;;;;;;;;4937402;29;20203;-79
2022/06/08 16:20:05;;;;;;;2.77;1.10;;;;;;;;;;4951186;29;20183;-80
2022/06/08 16:23:09;;;;;;;2.77;1.00;;;;;;;;;;4956292;29;20191;-79
2022/06/08 16:26:14;;;;;;;3.90;1.00;;;;;;;;;;4971131;28;20512;-78
2022/06/08 16:29:19;;;;;;;4.87;0.93;;;;;;;;;;4950250;29;20682;-79
2022/06/08 16:32:24;;;;;;;3.40;1.00;;;;;;;;;;4943269;29;20224;-79
2022/06/08 16:35:28;;;;;;;6.53;1.20;;;;;;;;;;4967899;28;20188;-81
2022/06/08 16:38:32;;;;;;;4.53;0.93;;;;;;;;;;4945566;29;20187;-82
2022/06/08 16:41:36;;;;;;;8.43;1.13;;;;;;;;;;4951817;28;20221;-79
2022/06/08 16:44:40;;;;;;;6.10;1.00;;;;;;;;;;4958289;29;20202;-80
2022/06/08 16:47:45;;;;;;;1.63;0.93;;;;;;;;;;4938825;29;20531;-79
2022/06/08 16:50:50;;;;;;;7.63;1.50;;;;;;;;;;4949533;29;20185;-80
2022/06/08 16:53:54;;;;;;;1.30;1.07;;;;;;;;;;4942971;29;20195;-80
2022/06/08 17:00:21;;;;;;;5.63;1.20;;;;;;;;;;4960434;28;20624;-79
2022/06/08 17:03:26;;;;;;;4.77;1.33;;;;;;;;;;4955839;28;20202;-80
2022/06/08 17:06:30;;;;;;;3.80;1.13;;;;;;;;;;4951626;29;20640;-80
2022/06/08 17:09:45;;;;;;;5.40;1.20;;;;;;;;;;4970317;28;20227;-80
2022/06/08 17:12:50;;;;;;;1.73;1.20;;;;;;;;;;4947685;29;20232;-80
2022/06/08 17:15:58;;;;;;;3.27;1.00;;;;;;;;;;4954128;28;20196;-80
2022/06/08 17:19:02;;;;;;;7.13;1.40;;;;;;;;;;4959880;29;20523;-80
2022/06/08 17:22:06;;;;;;;2.13;1.27;;;;;;;;;;4948028;29;20219;-81
2022/06/08 17:25:14;;;;;;;3.37;1.10;;;;;;;;;;4949442;29;20199;-80
2022/06/08 17:28:18;;;;;;;1.37;1.17;;;;;;;;;;4961731;29;20183;-80
2022/06/08 17:31:22;;;;;;;2.53;1.30;;;;;;;;;;4959154;29;20215;-80
2022/06/08 17:34:27;;;;;;;1.43;1.03;;;;;;;;;;4960141;29;20192;-80
2022/06/08 17:37:32;;;;;;;1.90;0.87;;;;;;;;;;4931716;29;20192;-80
2022/06/08 17:40:37;;;;;;;3.43;0.83;;;;;;;;;;4939411;29;20196;-80
2022/06/08 17:43:41;;;;;;;4.30;1.30;;;;;;;;;;4956221;29;20191;-80
2022/06/08 17:46:45;;;;;;;2.80;1.00;;;;;;;;;;4938276;29;20636;-80
2022/06/08 17:49:51;;;;;;;6.90;1.10;;;;;;;;;;4948931;29;20207;-80
2022/06/08 17:52:55;;;;;;;3.40;1.00;;;;;;;;;;4959726;28;20219;-80
2022/06/08 17:56:01;;;;;;;6.37;1.40;;;;;;;;;;4956587;29;20192;-80
2022/06/08 17:59:05;;;;;;;2.73;1.17;;;;;;;;;;4946000;29;20187;-80
2022/06/08 18:02:15;;;;;;;4.37;1.10;;;;;;;;;;4956207;29;20223;-80
2022/06/08 18:05:19;;;;;;;3.57;1.10;;;;;;;;;;4956830;29;20188;-81
2022/06/08 18:08:24;;;;;;;2.27;0.87;;;;;;;;;;4956672;29;20203;-81
2022/06/08 18:14:53;;;;;;;4.27;1.20;;;;;;;;;;4956977;29;20191;-80
2022/06/08 18:17:58;;;;;;;3.33;1.30;;;;;;;;;;4948319;29;20184;-80
2022/06/08 18:21:03;;;;;;;4.80;1.10;;;;;;;;;;4959861;28;20570;-81
2022/06/08 18:24:07;;;;;;;2.03;1.20;;;;;;;;;;4945169;29;20199;-81
2022/06/08 18:27:36;;;;;;;4.77;1.10;;;;;;;;;;4951938;29;20208;-81
2022/06/08 18:30:42;;;;;;;3.00;1.03;;;;;;;;;;4936335;29;20555;-82
2022/06/08 18:33:46;;;;;;;2.80;1.10;;;;;;;;;;4949143;29;20187;-82
2022/06/08 18:36:50;;;;;;;4.53;1.17;;;;;;;;;;4947288;29;20527;-81
2022/06/08 18:39:54;;;;;;;9.27;1.40;;;;;;;;;;4949952;29;20191;-82
2022/06/08 18:43:02;;;;;;;5.97;1.13;;;;;;;;;;4937112;29;20227;-81
2022/06/08 18:46:06;;;;;;;2.40;1.20;;;;;;;;;;5014943;23;20233;-87
2022/06/08 18:49:13;;;;;;;6.23;1.20;;;;;;;;;;4984741;28;20213;-88
2022/06/08 18:52:17;;;;;;;7.47;1.60;;;;;;;;;;4985979;28;20189;-87
2022/06/08 18:55:26;;;;;;;4.33;1.43;;;;;;;;;;4995931;28;20221;-86
2022/06/08 18:58:32;;;;;;;3.07;1.40;;;;;;;;;;4993818;28;20209;-87
2022/06/08 19:01:37;;;;;;;3.53;1.47;;;;;;;;;;5010447;28;20173;-87
2022/06/08 19:04:41;;;;;;;3.83;1.43;;;;;;;;;;4986237;28;20182;-87
2022/06/08 19:07:48;;;;;;;3.07;1.17;;;;;;;;;;4966879;28;20186;-87
2022/06/08 19:10:53;;;;;;;1.87;1.23;;;;;;;;;;4973503;28;20213;-87
2022/06/08 19:13:57;;;;;;;5.30;1.40;;;;;;;;;;4994012;28;20186;-87
2022/06/08 19:17:01;;;;;;;1.43;1.23;;;;;;;;;;5004970;28;20560;-87
2022/06/08 19:23:37;;;;;;;2.80;1.27;;;;;;;;;;4985601;28;20186;-90
2022/06/08 19:26:43;;;;;;;1.83;1.10;;;;;;;;;;5013350;28;20241;-89
2022/06/08 19:29:47;;;;;;;3.50;1.27;;;;;;;;;;4992914;28;20225;-87
2022/06/08 19:32:51;;;;;;;5.33;1.33;;;;;;;;;;4965759;28;20202;-87
2022/06/08 19:35:56;;;;;;;2.80;1.00;;;;;;;;;;4966934;28;20226;-87
2022/06/08 19:39:00;;;;;;;3.07;1.40;;;;;;;;;;4974239;28;20186;-87
2022/06/08 19:42:05;;;;;;;7.57;1.40;;;;;;;;;;4990211;28;20198;-87
2022/06/08 19:45:09;;;;;;;5.13;1.27;;;;;;;;;;4984331;28;20226;-87
2022/06/08 19:48:13;;;;;;;2.17;1.30;;;;;;;;;;4974323;28;20522;-87